Panola, Illinois
Current Conditions -  °F | °C
As of 5:56 PM on Monday 20 Oct 2014 (Local Time) from KBMI Reporting Station
Clear Clear  
Wind Chill: 62°   Ceiling: Unl
Heat Index: 62°   Visibility: 10mi
Dew Point: 45°   Wind: 10mph
Humidity: 54%   Direction: 320°NW
Pressure: 29.95"   Gusts: NA
Location:  40.7564°N, 89.0023°W
Report Text: KBMI 202256Z 32009KT 10SM CLR 17/07 A2995 RMK AO2 T01660072 SLP142
Loading
Personal Weather Stations






























Interactive Weather Map
Tropical Storm Tracking
New forecast layout! Learn more

10-Day Weather Forecast

Advertisements
Track Severe Weather on mobile